Map

Track Data

SID SEASON NUMBER BASIN SUBBASIN NAME ISO_TIME NATURE LAT LON WMO_WIND WMO_PRES WMO_AGENCY TRACK_TYPE DIST2LAND LANDFALL IFLAG USA_AGENCY USA_ATCF_ID USA_LAT USA_LON USA_RECORD USA_STATUS USA_WIND USA_PRES USA_SSHS USA_R34_NE USA_R34_SE USA_R34_SW USA_R34_NW USA_R50_NE USA_R50_SE USA_R50_SW USA_R50_NW USA_R64_NE USA_R64_SE USA_R64_SW USA_R64_NW USA_POCI USA_ROCI USA_RMW USA_EYE TOKYO_LAT TOKYO_LON TOKYO_GRADE TOKYO_WIND TOKYO_PRES TOKYO_R50_DIR TOKYO_R50_LONG TOKYO_R50_SHORT TOKYO_R30_DIR TOKYO_R30_LONG TOKYO_R30_SHORT TOKYO_LAND CMA_LAT CMA_LON CMA_CAT CMA_WIND CMA_PRES HKO_LAT HKO_LON HKO_CAT HKO_WIND HKO_PRES NEWDELHI_LAT NEWDELHI_LON NEWDELHI_GRADE NEWDELHI_WIND NEWDELHI_PRES NEWDELHI_CI NEWDELHI_DP NEWDELHI_POCI REUNION_LAT REUNION_LON REUNION_TYPE REUNION_WIND REUNION_PRES REUNION_TNUM REUNION_CI REUNION_RMW REUNION_R34_NE REUNION_R34_SE REUNION_R34_SW REUNION_R34_NW REUNION_R50_NE REUNION_R50_SE REUNION_R50_SW REUNION_R50_NW REUNION_R64_NE REUNION_R64_SE REUNION_R64_SW REUNION_R64_NW BOM_LAT BOM_LON BOM_TYPE BOM_WIND BOM_PRES BOM_TNUM BOM_CI BOM_RMW BOM_R34_NE BOM_R34_SE BOM_R34_SW BOM_R34_NW BOM_R50_NE BOM_R50_SE BOM_R50_SW BOM_R50_NW BOM_R64_NE BOM_R64_SE BOM_R64_SW BOM_R64_NW BOM_ROCI BOM_POCI BOM_EYE BOM_POS_METHOD BOM_PRES_METHOD NADI_LAT NADI_LON NADI_CAT NADI_WIND NADI_PRES WELLINGTON_LAT WELLINGTON_LON WELLINGTON_WIND WELLINGTON_PRES DS824_LAT DS824_LON DS824_STAGE DS824_WIND DS824_PRES TD9636_LAT TD9636_LON TD9636_STAGE TD9636_WIND TD9636_PRES TD9635_LAT TD9635_LON TD9635_WIND TD9635_PRES TD9635_ROCI NEUMANN_LAT NEUMANN_LON NEUMANN_CLASS NEUMANN_WIND NEUMANN_PRES MLC_LAT MLC_LON MLC_CLASS MLC_WIND MLC_PRES USA_GUST BOM_GUST BOM_GUST_PER REUNION_GUST REUNION_GUST_PER USA_SEAHGT USA_SEARAD_NE USA_SEARAD_SE USA_SEARAD_SW USA_SEARAD_NW STORM_SPEED STORM_DIR
1991307N06177 1991 89 WP MM VERNE 1991-11-03 00:00:00 NR 6.10000 177.000 main 2422 2389 O_____________ jtwc_wp WP281991 6.10000 177.000 15 -1 10 281
1991307N06177 1991 89 WP MM VERNE 1991-11-03 03:00:00 NR 6.19759 176.500 main 2389 2357 P_____________ WP281991 6.19759 176.500 15 -1 10 281
1991307N06177 1991 89 WP MM VERNE 1991-11-03 06:00:00 NR 6.30000 176.000 main 2357 2326 O_____________ jtwc_wp WP281991 6.30000 176.000 15 -1 10 282
1991307N06177 1991 89 WP MM VERNE 1991-11-03 09:00:00 NR 6.40745 175.500 main 2326 2295 P_____________ WP281991 6.40745 175.500 17 -1 10 281
1991307N06177 1991 89 WP MM VERNE 1991-11-03 12:00:00 NR 6.50000 175.000 main 2295 2258 O_____________ jtwc_wp WP281991 6.50000 175.000 20 -1 10 278
1991307N06177 1991 89 WP MM VERNE 1991-11-03 15:00:00 NR 6.54238 174.522 main 2258 2229 P_____________ WP281991 6.54238 174.522 20 -1 10 276
1991307N06177 1991 89 WP MM VERNE 1991-11-03 18:00:00 NR 6.60000 174.000 main 2229 2195 O_____________ jtwc_wp WP281991 6.60000 174.000 20 -1 12 280
1991307N06177 1991 89 WP MM VERNE 1991-11-03 21:00:00 NR 6.74250 173.373 main 2195 2164 P_____________ WP281991 6.74250 173.373 22 -1 13 283
1991307N06177 1991 89 WP MM VERNE 1991-11-04 00:00:00 NR 6.90000 172.700 main 2164 2133 O_____________ jtwc_wp WP281991 6.90000 172.700 25 -1 13 281
1991307N06177 1991 89 WP MM VERNE 1991-11-04 03:00:00 NR 6.99235 172.065 main 2133 2097 P_____________ WP281991 6.99235 172.065 25 -1 13 279
1991307N06177 1991 89 WP MM VERNE 1991-11-04 06:00:00 NR 7.10000 171.400 main 2097 2074 O_____________ jtwc_wp WP281991 7.10000 171.400 25 -1 14 283
1991307N06177 1991 89 WP MM VERNE 1991-11-04 09:00:00 NR 7.30741 170.673 main 2074 2047 P_____________ WP281991 7.30741 170.673 25 -1 15 285
1991307N06177 1991 89 WP MM VERNE 1991-11-04 12:00:00 NR 7.50000 169.900 main 2047 2015 O_____________ jtwc_wp WP281991 7.50000 169.900 25 -1 16 279
1991307N06177 1991 89 WP MM VERNE 1991-11-04 15:00:00 NR 7.55735 169.115 main 2015 1976 P_____________ WP281991 7.55735 169.115 25 -1 16 274
1991307N06177 1991 89 WP MM VERNE 1991-11-04 18:00:00 NR 7.60000 168.300 main 1976 1951 O_____________ jtwc_wp WP281991 7.60000 168.300 25 -1 17 276
1991307N06177 1991 89 WP MM VERNE 1991-11-04 21:00:00 NR 7.71988 167.457 main 1951 1925 P_____________ WP281991 7.71988 167.457 25 -1 18 277
1991307N06177 1991 89 WP MM VERNE 1991-11-05 00:00:00 TS 7.82000 166.520 main 1922 1911 O_O___________ jtwc_wp WP281991 7.90000 166.600 25 -1 7.50000 166.200 1 29 1004 18 279
1991307N06177 1991 89 WP MM VERNE 1991-11-05 03:00:00 TS 7.99159 165.711 main 1912 1908 P_P___________ WP281991 8.10483 165.750 25 -1 7.76511 165.633 1 29 1004 16 289
1991307N06177 1991 89 WP MM VERNE 1991-11-05 06:00:00 TS 8.34444 165.011 1004 tokyo main 1906 1890 OOOO__________ jtwc_wp WP281991 8.40000 164.900 25 -1 8.00000 165.000 2 1004 0 0 0 8.00000 165.000 1 29 1004 9.50000 165.500 TD 25 1000 17 295
1991307N06177 1991 89 WP MM VERNE 1991-11-05 09:00:00 TS 8.68417 164.192 main 1894 1863 PPPP__________ WP281991 8.82731 164.050 25 -1 8.31300 164.000 2 1004 0 0 8.20487 164.252 1 29 1004 9.72763 164.547 TD 25 1000 19 294
1991307N06177 1991 89 WP MM VERNE 1991-11-05 12:00:00 TS 9.09286 163.279 1004 tokyo main 1865 1840 OOOO__________ jtwc_wp WP281991 9.30000 163.200 25 -1 8.70000 163.000 2 1004 0 0 0 8.50000 163.400 1 29 1004 10.0000 163.500 TD 25 1000 21 295
1991307N06177 1991 89 WP MM VERNE 1991-11-05 15:00:00 TS 9.56299 162.295 main 1842 1815 PPPP__________ WP281991 9.71484 162.342 25 -1 9.21224 162.000 2 1004 0 0 8.98206 162.517 1 29 1004 10.3428 162.320 TD 27 997 22 296
1991307N06177 1991 89 WP MM VERNE 1991-11-05 18:00:00 TS 10.0500 161.300 1004 tokyo main 1821 1799 OOOO__________ jtwc_wp WP281991 10.1000 161.500 25 -1 9.80000 161.000 2 1004 0 0 0 9.60000 161.500 1 29 1004 10.7000 161.200 TD 30 995 22 297
1991307N06177 1991 89 WP MM VERNE 1991-11-05 21:00:00 TS 10.5582 160.291 main 1808 1796 PPPP__________ WP281991 10.4648 160.677 25 -1 10.4150 159.963 2 1004 0 0 10.3460 160.191 1 29 1003 11.0069 160.332 TD 30 995 21 297
1991307N06177 1991 89 WP MM VERNE 1991-11-06 00:00:00 TS 11.0250 159.375 1004 tokyo main 1796 1789 OOOO__________ jtwc_wp WP281991 10.8000 159.900 25 -1 11.0000 159.000 2 1004 0 0 0 11.0000 159.000 1 29 1002 11.3000 159.600 TD 30 995 18 297
1991307N06177 1991 89 WP MM VERNE 1991-11-06 03:00:00 TS 11.3662 158.673 main 1799 1789 PPPP__________ WP281991 11.1073 159.177 27 -1 11.4719 158.219 2 1003 0 0 11.2785 158.418 1 29 1001 11.6073 158.877 TD 30 995 15 296
1991307N06177 1991 89 WP MM VERNE 1991-11-06 06:00:00 TS 11.6750 158.025 1002 tokyo main 1794 1789 OOOO__________ jtwc_wp WP281991 11.4000 158.500 30 -1 11.9000 157.500 2 1002 0 0 0 11.5000 157.900 1 29 1000 11.9000 158.200 TD 30 995 16 296
1991307N06177 1991 89 WP MM VERNE 1991-11-06 09:00:00 TS 12.0446 157.224 main 1788 1788 PPPP__________ WP281991 11.6924 157.835 30 -1 12.3652 156.655 2 1002 0 0 11.9634 156.866 1 33 997 12.1573 157.542 TD 32 992 17 296
1991307N06177 1991 89 WP MM VERNE 1991-11-06 12:00:00 TS 12.4250 156.450 1002 tokyo main 1797 1797 OOOO__________ jtwc_wp WP281991 12.0000 157.200 30 -1 12.8000 155.900 2 1002 0 0 0 12.5000 155.800 2 38 995 12.4000 156.900 TS 35 990 16 299
1991307N06177 1991 89 WP MM VERNE 1991-11-06 15:00:00 TS 12.8041 155.823 main 1819 1819 PPPP__________ WP281991 12.3499 156.585 30 -1 13.1796 155.382 2 1001 0 0 13.0368 155.082 2 38 995 12.6499 156.242 TS 37 990 14 302
1991307N06177 1991 89 WP MM VERNE 1991-11-06 18:00:00 TS 13.1500 155.275 1000 tokyo main 1846 1835 OOOO__________ jtwc_wp WP281991 12.7000 156.000 30 -1 13.5000 155.000 2 1000 0 0 0 13.5000 154.500 2 38 995 12.9000 155.600 TS 40 990 12 300
1991307N06177 1991 89 WP MM VERNE 1991-11-06 21:00:00 TS 13.4312 154.720 main 1851 1851 PPPP__________ WP281991 13.0073 155.442 30 -1 13.7799 154.627 2 1000 0 0 13.7801 153.825 2 38 995 13.1574 154.985 TS 40 990 12 297
1991307N06177 1991 89 WP MM VERNE 1991-11-07 00:00:00 TS 13.6750 154.225 1000 tokyo main 1873 1871 OOOO__________ jtwc_wp WP281991 13.3000 154.900 30 -1 14.0000 154.300 2 1000 0 0 0 14.0000 153.300 2 38 995 13.4000 154.400 TS 40 990 10 299
1991307N06177 1991 89 WP MM VERNE 1991-11-07 03:00:00 TS 13.9236 153.822 main 1887 1887 PPPP__________ WP281991 13.6073 154.357 32 -1 14.1649 153.992 2 1000 0 0 14.3147 153.097 2 38 995 13.6073 153.842 TS 40 990 9 302
1991307N06177 1991 89 WP MM VERNE 1991-11-07 06:00:00 TS 14.1500 153.450 1000 tokyo main 1914 1903 OOOO__________ jtwc_wp WP281991 13.9000 153.800 35 0 14.3000 153.700 2 1000 0 0 0 14.6000 153.000 2 38 995 13.8000 153.300 TS 40 990 9 299
1991307N06177 1991 89 WP MM VERNE 1991-11-07 09:00:00 TS 14.3506 153.029 main 1929 1927 PPPP__________ WP281991 14.1576 153.185 35 0 14.4575 153.400 2 999 0 0 14.7875 152.780 2 38 995 13.9999 152.750 TS 40 990 9 294
1991307N06177 1991 89 WP MM VERNE 1991-11-07 12:00:00 TS 14.5250 152.600 35 998 tokyo main 1936 1936 OOOO__________ jtwc_wp WP281991 14.4000 152.600 35 0 14.6000 153.100 3 35 998 0 9 120 120 0 14.9000 152.500 2 38 995 14.2000 152.200 TS 40 990 9 292
1991307N06177 1991 89 WP MM VERNE 1991-11-07 15:00:00 TS 14.6824 152.180 main 1954 1949 PPPP__________ WP281991 14.6648 152.120 37 0 14.6924 152.807 3 40 995 0 9 135 135 14.9726 152.142 2 38 995 14.3999 151.650 TS 42 987 9 291
1991307N06177 1991 89 WP MM VERNE 1991-11-07 18:00:00 TS 14.8250 151.775 45 992 tokyo main 1954 1951 OOOO__________ jtwc_wp WP281991 14.9000 151.700 40 0 14.8000 152.500 3 45 992 0 9 150 150 0 15.0000 151.800 2 38 995 14.6000 151.100 TS 45 985 8 290
1991307N06177 1991 89 WP MM VERNE 1991-11-07 21:00:00 TS 14.9568 151.385 main 1965 1958 PPPP__________ WP281991 15.0574 151.292 42 0 14.9925 152.150 3 47 988 0 9 175 175 14.9699 151.570 2 43 992 14.8075 150.528 TS 42 987 8 291
1991307N06177 1991 89 WP MM VERNE 1991-11-08 00:00:00 TS 15.1000 151.025 50 985 tokyo main 1967 1965 OOOO__________ jtwc_wp WP281991 15.2000 150.900 45 0 15.2000 151.800 4 50 985 0 9 200 200 0 15.0000 151.400 3 48 990 15.0000 150.000 TS 40 990 7 296
1991307N06177 1991 89 WP MM VERNE 1991-11-08 03:00:00 TS 15.2780 150.718 main 1982 1980 PPPP__________ WP281991 15.3924 150.500 45 0 15.3499 151.507 4 50 985 0 9 200 200 15.2123 151.295 3 48 987 15.1573 149.570 TS 37 990 7 302
1991307N06177 1991 89 WP MM VERNE 1991-11-08 06:00:00 TS 15.4750 150.400 50 985 tokyo main 1999 1997 OOOO__________ jtwc_wp WP281991 15.6000 150.100 45 0 15.5000 151.200 4 50 985 0 9 200 200 0 15.5000 151.100 3 48 985 15.3000 149.200 TS 35 990 8 300
1991307N06177 1991 89 WP MM VERNE 1991-11-08 09:00:00 TS 15.6731 150.004 main 2014 2012 PPPP__________ WP281991 15.8000 149.692 47 0 15.6925 150.808 4 50 985 0 9 200 200 15.7500 150.675 3 48 985 15.4499 148.842 TS 35 990 9 297
1991307N06177 1991 89 WP MM VERNE 1991-11-08 12:00:00 TS 15.8750 149.575 50 985 tokyo main 2030 2028 OOOO__________ jtwc_wp WP281991 16.0000 149.300 50 0 15.9000 150.400 4 50 985 0 9 200 200 0 16.0000 150.100 3 48 985 15.6000 148.500 TS 35 990 9 296
1991307N06177 1991 89 WP MM VERNE 1991-11-08 15:00:00 TS 16.0806 149.141 main 2047 2046 PPPP__________ WP281991 16.1999 148.942 52 0 16.1074 150.035 4 52 982 0 9 200 200 16.2653 149.428 3 48 985 15.7499 148.157 TS 35 990 9 296
1991307N06177 1991 89 WP MM VERNE 1991-11-08 18:00:00 TS 16.2750 148.725 55 980 tokyo main 2066 2065 OOOO__________ jtwc_wp WP281991 16.4000 148.600 55 0 16.3000 149.700 4 55 980 9 50 50 9 200 200 0 16.5000 148.800 3 48 985 15.9000 147.800 TS 35 990 8 296
1991307N06177 1991 89 WP MM VERNE 1991-11-08 21:00:00 TS 16.4430 148.364 main 2075 2075 PPPP__________ WP281991 16.6075 148.242 55 0 16.4574 149.400 4 55 980 9 50 50 9 200 200 16.6572 148.397 3 53 982 16.0499 147.415 TS 35 990 7 300
1991307N06177 1991 89 WP MM VERNE 1991-11-09 00:00:00 TS 16.6267 148.093 55 980 tokyo main 2096 2096 OOOO__________ jtwc_wp WP281991 16.8000 147.900 55 0 16.6000 149.100 4 55 980 9 50 50 9 200 200 0 16.8000 148.100 3 58 980 16.2000 147.000 TS 35 990 6 308
1991307N06177 1991 89 WP MM VERNE 1991-11-09 03:00:00 TS 16.8224 147.847 main 2117 2117 PPPP__________ WP281991 16.9574 147.592 55 0 16.7499 148.765 4 55 980 9 45 45 9 185 185 16.9998 147.822 3 58 980 16.3420 146.554 TS 35 990 6 311
1991307N06177 1991 89 WP MM VERNE 1991-11-09 06:00:00 TS 17.0231 147.608 55 980 tokyo main 2139 2112 OOOO__________ jtwc_wp WP281991 17.1000 147.300 55 0 16.9000 148.400 4 55 980 9 40 40 9 170 170 0 17.2000 147.500 3 58 980 16.5000 146.100 TS 35 990 6 308
1991307N06177 1991 89 WP MM VERNE 1991-11-09 09:00:00 TS 17.2092 147.338 main 2108 2077 PPPP__________ WP281991 17.2349 147.007 55 0 17.0349 148.015 4 55 980 9 40 40 9 170 170 17.3578 146.993 3 58 980 16.7026 145.605 TS 7 298
1991307N06177 1991 89 WP MM VERNE 1991-11-09 12:00:00 TS 17.3667 146.933 55 980 tokyo main 2073 2042 OOOP__________ jtwc_wp WP281991 17.4000 146.700 55 0 17.2000 147.600 4 55 980 9 40 40 9 170 170 0 17.5000 146.500 3 58 980 16.9473 145.080 TS 8 297
1991307N06177 1991 89 WP MM VERNE 1991-11-09 15:00:00 TS 17.5707 146.586 main 2042 2011 PPPP__________ WP281991 17.6199 146.372 55 0 17.4349 147.165 4 52 982 9 9 165 165 17.6572 146.220 3 58 980 17.2308 144.537 TS 8 303
1991307N06177 1991 89 WP MM VERNE 1991-11-09 18:00:00 TS 17.8000 146.233 50 985 tokyo main 2008 1978 OOOP__________ jtwc_wp WP281991 17.9000 146.000 55 0 17.7000 146.700 4 50 985 0 9 160 160 0 17.8000 146.000 3 58 980 17.5494 143.987 TS 8 301
1991307N06177 1991 89 WP MM VERNE 1991-11-09 21:00:00 TS 17.9932 145.841 main 1975 1942 PPPP__________ WP281991 18.2350 145.558 55 0 17.9197 146.237 4 50 985 0 9 160 160 17.8249 145.729 3 53 982 17.9000 143.440 TS 9 301
1991307N06177 1991 89 WP MM VERNE 1991-11-10 00:00:00 TS 18.2667 145.400 50 985 tokyo main 1931 1874 OOOP__________ jtwc_wp WP281991 18.6000 145.100 55 0 18.2000 145.700 4 50 985 0 9 160 160 0 18.0000 145.400 3 48 985 18.2792 142.908 TS 12 309
1991307N06177 1991 89 WP MM VERNE 1991-11-10 03:00:00 TS 18.7251 144.876 main 1874 1800 PPPP__________ WP281991 18.9424 144.692 55 0 18.6353 145.008 4 50 985 0 9 160 160 18.5978 144.929 3 48 985 18.6839 142.402 TS 14 315
1991307N06177 1991 89 WP MM VERNE 1991-11-10 06:00:00 TS 19.2333 144.367 50 985 tokyo main 1800 1741 OOOP__________ jtwc_wp WP281991 19.3000 144.300 55 0 19.1000 144.300 4 50 985 0 9 160 160 0 19.3000 144.500 3 48 985 19.1112 141.934 TS 12 317
1991307N06177 1991 89 WP MM VERNE 1991-11-10 09:00:00 TS 19.6356 143.987 main 1741 1687 PPPP__________ WP281991 19.6849 143.907 52 0 19.4497 143.719 4 50 985 0 9 160 160 19.7722 144.334 3 48 985 19.5580 141.515 TS 11 319
1991307N06177 1991 89 WP MM VERNE 1991-11-10 12:00:00 TS 20.0333 143.633 50 985 tokyo main 1683 1614 OOOP__________ jtwc_wp WP281991 20.1000 143.500 50 0 19.8000 143.200 4 50 985 0 9 160 160 0 20.2000 144.200 3 48 985 20.0216 141.158 TS 11 320
1991307N06177 1991 89 WP MM VERNE 1991-11-10 15:00:00 TS 20.5050 143.205 main 1614 1556 PPPP__________ WP281991 20.5351 143.042 50 0 20.2350 142.670 4 50 985 0 9 160 160 20.7449 143.903 3 48 985 20.4992 140.874 TS 12 319
1991307N06177 1991 89 WP MM VERNE 1991-11-10 18:00:00 TS 20.9667 142.767 50 985 tokyo main 1546 1498 OOOP__________ jtwc_wp WP281991 21.0000 142.600 50 0 20.7000 142.200 4 50 985 0 9 160 160 0 21.2000 143.500 3 48 985 20.9882 140.677 TS 11 316
1991307N06177 1991 89 WP MM VERNE 1991-11-10 21:00:00 TS 21.3207 142.351 main 1498 1441 PPPP__________ WP281991 21.4849 142.212 50 0 21.1275 141.782 4 47 987 0 9 145 145 21.3496 143.059 3 48 985 21.4857 140.578 TS 10 315
1991307N06177 1991 89 WP MM VERNE 1991-11-11 00:00:00 TS 21.7000 141.967 45 990 tokyo main 1441 1369 OOOP__________ jtwc_wp WP281991 22.0000 141.900 50 0 21.6000 141.500 3 45 990 0 9 130 130 0 21.5000 142.500 3 48 985 21.9889 140.590 TS 12 319
1991307N06177 1991 89 WP MM VERNE 1991-11-11 03:00:00 TS 22.2510 141.486 main 1359 1299 PPPP__________ WP281991 22.5424 141.610 50 0 22.1999 141.382 3 45 990 0 9 130 130 21.9487 141.662 3 48 985 22.4948 140.726 TS 13 330
1991307N06177 1991 89 WP MM VERNE 1991-11-11 06:00:00 TS 22.8286 141.257 45 990 tokyo main 1299 1248 OOOO__________ jtwc_wp WP281991 23.1000 141.500 50 0 22.8000 141.400 3 45 990 0 9 130 130 0 22.5000 141.000 3 48 985 23.0000 141.000 TS 35 990 11 351
1991307N06177 1991 89 WP MM VERNE 1991-11-11 09:00:00 TS 23.3366 141.308 main 1248 1211 PPPP__________ WP281991 23.6567 141.593 47 0 23.2396 141.419 3 45 990 0 9 130 130 22.9911 140.860 3 48 985 23.4965 141.372 TS 35 990 11 21
1991307N06177 1991 89 WP MM VERNE 1991-11-11 12:00:00 TS 23.8500 141.675 45 990 tokyo main 1205 1181 OOOO__________ jtwc_wp WP281991 24.2000 142.000 45 0 23.7000 141.600 3 45 990 0 9 130 130 0 23.5000 141.200 3 48 985 24.0000 141.900 TS 35 990 14 41
1991307N06177 1991 89 WP MM VERNE 1991-11-11 15:00:00 TS 24.3817 142.294 45 990 tokyo main 1186 1157 POPP__________ WP281991 24.7001 142.730 45 0 24.3000 142.000 3 45 990 0 9 130 130 0 24.0271 141.878 3 43 987 24.4996 142.568 TS 35 990 18 53
1991307N06177 1991 89 WP MM VERNE 1991-11-11 18:00:00 TS 24.9250 143.250 45 992 tokyo main 1162 1133 OOOO__________ jtwc_wp WP281991 25.2000 143.700 45 0 24.9000 143.000 3 45 992 0 9 130 130 0 24.6000 142.900 2 38 990 25.0000 143.400 TS 35 990 21 60
1991307N06177 1991 89 WP MM VERNE 1991-11-11 21:00:00 TS 25.4579 144.333 45 994 tokyo main 1130 1123 POPP__________ WP281991 25.7265 144.684 42 0 25.4000 144.200 3 45 994 0 9 130 130 0 25.2284 144.112 2 38 990 25.4769 144.334 TS 37 990 23 61
1991307N06177 1991 89 WP MM VERNE 1991-11-12 00:00:00 TS 26.0500 145.500 40 996 tokyo main 1118 1112 OOOO__________ jtwc_wp WP281991 26.3000 145.800 40 0 26.0000 145.400 3 40 996 0 9 130 130 0 25.9000 145.400 2 38 990 26.0000 145.400 TS 40 990 24 59
1991307N06177 1991 89 WP MM VERNE 1991-11-12 03:00:00 TS 26.6687 146.612 main 1115 1113 PPPP__________ WP281991 26.9417 147.041 40 0 26.5560 146.443 3 40 997 0 9 125 125 26.5742 146.451 2 38 992 26.6031 146.512 TS 37 992 24 58
1991307N06177 1991 89 WP MM VERNE 1991-11-12 06:00:00 TS 27.3357 147.814 40 998 tokyo main 1126 1120 OOOO__________ jtwc_wp WP281991 27.6000 148.400 40 0 27.2000 147.600 3 40 998 0 9 120 120 0 27.3000 147.600 2 38 995 27.3000 147.800 TS 35 995 27 59
1991307N06177 1991 89 WP MM VERNE 1991-11-12 09:00:00 TS 28.0771 149.242 main 1147 1147 PPPP__________ WP281991 28.2180 149.830 37 0 28.0392 149.167 3 1000 0 9 28.0418 148.982 2 38 996 28.0824 149.324 TS 32 997 32 60
1991307N06177 1991 89 WP MM VERNE 1991-11-12 12:00:00 MX 28.9333 150.967 1002 tokyo main 1212 1212 OOOO__________ jtwc_wp WP281991 28.8000 151.300 35 0 29.0000 151.000 6 1002 0 0 0 28.9000 150.800 2 38 998 28.9000 151.000 TD 30 1000 39 60
1991307N06177 1991 89 WP MM VERNE 1991-11-12 15:00:00 MX 30.0147 153.086 main 1301 1301 _PP___________ WP281991 -1 30.0619 153.025 6 1002 0 0 29.9204 153.208 2 33 999 TD 42 61
1991307N06177 1991 89 WP MM VERNE 1991-11-12 18:00:00 MX 31.0000 155.200 1002 tokyo main 1423 1423 _OO___________ -1 31.0000 155.000 6 1002 0 0 0 31.0000 156.000 1 29 1000 32 62
1991307N06177 1991 89 WP MM VERNE 1991-11-12 21:00:00 ET 31.4850 156.368 main 1505 1505 _P____________ -1 31.4850 156.368 6 1003 0 0 1 26 67
1991307N06177 1991 89 WP MM VERNE 1991-11-13 00:00:00 ET 32.0000 158.000 1004 tokyo main 1626 1626 _O____________ -1 32.0000 158.000 6 1004 0 0 0 40 67
1991307N06177 1991 89 WP MM VERNE 1991-11-13 03:00:00 ET 33.0812 160.755 main 1682 1682 _P____________ -1 33.0812 160.755 6 1004 0 0 54 68
1991307N06177 1991 89 WP MM VERNE 1991-11-13 06:00:00 ET 34.0000 164.000 1004 tokyo main 1766 1766 _O____________ -1 34.0000 164.000 6 1004 0 0 0 54 79
1991307N06177 1991 89 WP MM VERNE 1991-11-13 09:00:00 ET 34.0725 167.097 main 1938 1938 _P____________ -1 34.0725 167.097 6 1004 0 0 50 90
1991307N06177 1991 89 WP MM VERNE 1991-11-13 12:00:00 ET 34.0000 170.000 1004 tokyo main 2129 2129 _O____________ -1 34.0000 170.000 6 1004 0 0 0 45 86
1991307N06177 1991 89 WP MM VERNE 1991-11-13 15:00:00 ET 34.3563 172.580 main 2216 2216 _P____________ -1 34.3563 172.580 6 1004 0 0 42 76
1991307N06177 1991 89 WP MM VERNE 1991-11-13 18:00:00 ET 35.0000 175.000 1004 tokyo main 2285 _O____________ -1 35.0000 175.000 6 1004 0 0 0 42 72

Digital Typhoon Data and Search

About IBTrACS Database

This database is a web-friendly format of International Best Track Archive for Climate Stewardship (IBTrACS), a global best track data archive curated by NOAA dating back to 1842.

Updated: 2021-10-19